Colorado Springs, CO (80942)

5:13 PM MDT on March 30, 2015 (GMT -0600)
Old Colorado City Hwy 24 & 21st Street | | Change Station
CLOSE
Current Station
Personal Weather Station
Location: Colorado Springs, CO
Elevation: 6066 ft
Nearby Weather Stations

Elev 6066 ft 38.84 °N, 104.86 °W | Updated 4 seconds ago

Partly Cloudy
Partly Cloudy
73.9 °F
Feels Like 74 °F
N
5.3
Wind Variable Wind from NNE

Today
High -- | Low -- °F
--% Chance of Precip.
Yesterday
High -- | Low -- °F
Precip. -- in
6:47 AM 7:20 PM
Waxing Gibbous, 82% visible
Pressure 29.98 in
Visibility 10.0 miles
Clouds Few 10000 ft
Scattered Clouds 24000 ft
Heat Index 74 °F
Dew Point 14 °F
Humidity 10%
Rainfall 0.00 in
Snow Depth Not available.
UV 2 out of 12
Pollen 11.80 out of 12
Air Quality Not available.
Flu Activity Not available.
METAR KCOS 302254Z 06008KT 350V090 10SM FEW100 SCT240 21/M17 A3010 RMK AO2 SLP151 T02061167

More Conditions Fewer Conditions

Pressure 29.98 in
Visibility 10.0 miles
Clouds Few 10000 ft
Scattered Clouds 24000 ft
Heat Index 74 °F
Dew Point 14 °F
Humidity 10%
Rainfall 0.00 in
Snow Depth Not available.
UV 2 out of 12
Pollen 11.80 out of 12
Air Quality Not available.
Flu Activity Not available.
METAR KCOS 302254Z 06008KT 350V090 10SM FEW100 SCT240 21/M17 A3010 RMK AO2 SLP151 T02061167

More Conditions Fewer Conditions

10-Day Weather Forecast

Almanac

Astronomy

Mar. 30, 2015 Rise Set
Actual Time
Civil Twilight
Nautical Twilight
Astronomical Twilight
Moon
Length of Visible Light
Length of Day
Tomorrow will be .
, % of the Moon is Illuminated

Today's Extremes

State Highs State Lows

Community

WunderPhotos

Upload Photos

1,809,619 photos uploaded!

WunderBlogs® & News

Nearby

Air Quality

  Air Quality AQ Index Pollutant
Not available.

Snow Depth

Station Depth Elevation

Earthquake Activity

City Distance Mag. Time & Date
Minimum magnitude displayed is 2.5.

Coastal Water Temperatures

Place Temperature

Stations

Nearby Weather Stations

Station Location Temp. Windchill Dew Point Humidity Wind Precip. Elev Updated Type